sensor_id;sensor_type;location;lat;lon;timestamp;P1;durP1;ratioP1;P2;durP2;ratioP2
43311;SDS011;30041;48.300;16.352;2024-01-25T00:01:48;0.35;;;0.05;;
43311;SDS011;30041;48.300;16.352;2024-01-25T00:04:14;0.45;;;0.10;;
43311;SDS011;30041;48.300;16.352;2024-01-25T00:06:40;0.10;;;0.00;;
43311;SDS011;30041;48.300;16.352;2024-01-25T00:09:05;0.45;;;0.00;;
43311;SDS011;30041;48.300;16.352;2024-01-25T00:11:31;0.28;;;0.00;;
43311;SDS011;30041;48.300;16.352;2024-01-25T00:13:57;0.17;;;0.08;;
43311;SDS011;30041;48.300;16.352;2024-01-25T00:16:23;0.28;;;0.03;;
43311;SDS011;30041;48.300;16.352;2024-01-25T00:18:49;0.10;;;0.00;;
43311;SDS011;30041;48.300;16.352;2024-01-25T00:21:15;0.00;;;0.00;;
43311;SDS011;30041;48.300;16.352;2024-01-25T00:23:41;0.22;;;0.00;;
43311;SDS011;30041;48.300;16.352;2024-01-25T00:26:07;0.00;;;0.00;;
43311;SDS011;30041;48.300;16.352;2024-01-25T00:28:33;0.43;;;0.00;;
43311;SDS011;30041;48.300;16.352;2024-01-25T00:30:59;0.17;;;0.00;;
43311;SDS011;30041;48.300;16.352;2024-01-25T00:33:24;0.30;;;0.05;;
43311;SDS011;30041;48.300;16.352;2024-01-25T00:35:50;0.30;;;0.03;;
43311;SDS011;30041;48.300;16.352;2024-01-25T00:38:16;0.00;;;0.00;;
43311;SDS011;30041;48.300;16.352;2024-01-25T00:40:42;0.00;;;0.00;;
43311;SDS011;30041;48.300;16.352;2024-01-25T00:43:09;0.20;;;0.10;;
43311;SDS011;30041;48.300;16.352;2024-01-25T00:45:35;0.47;;;0.00;;
43311;SDS011;30041;48.300;16.352;2024-01-25T00:48:01;0.22;;;0.00;;
43311;SDS011;30041;48.300;16.352;2024-01-25T00:50:27;0.35;;;0.00;;
43311;SDS011;30041;48.300;16.352;2024-01-25T00:52:53;0.08;;;0.00;;
43311;SDS011;30041;48.300;16.352;2024-01-25T00:55:19;0.40;;;0.20;;
43311;SDS011;30041;48.300;16.352;2024-01-25T00:57:45;0.00;;;0.00;;
43311;SDS011;30041;48.300;16.352;2024-01-25T01:00:12;0.20;;;0.10;;
43311;SDS011;30041;48.300;16.352;2024-01-25T01:02:44;0.10;;;0.10;;
43311;SDS011;30041;48.300;16.352;2024-01-25T01:05:11;0.10;;;0.00;;
43311;SDS011;30041;48.300;16.352;2024-01-25T01:07:38;0.60;;;0.08;;
43311;SDS011;30041;48.300;16.352;2024-01-25T01:10:04;0.17;;;0.00;;
43311;SDS011;30041;48.300;16.352;2024-01-25T01:12:31;0.47;;;0.10;;
43311;SDS011;30041;48.300;16.352;2024-01-25T01:14:56;0.15;;;0.00;;
43311;SDS011;30041;48.300;16.352;2024-01-25T01:17:22;0.20;;;0.00;;
43311;SDS011;30041;48.300;16.352;2024-01-25T01:19:48;0.10;;;0.00;;
43311;SDS011;30041;48.300;16.352;2024-01-25T01:22:14;0.22;;;0.10;;
43311;SDS011;30041;48.300;16.352;2024-01-25T01:24:40;0.10;;;0.10;;
43311;SDS011;30041;48.300;16.352;2024-01-25T01:27:05;0.10;;;0.00;;
43311;SDS011;30041;48.300;16.352;2024-01-25T01:29:31;0.08;;;0.00;;
43311;SDS011;30041;48.300;16.352;2024-01-25T01:31:57;0.30;;;0.00;;
43311;SDS011;30041;48.300;16.352;2024-01-25T01:34:23;0.00;;;0.00;;
43311;SDS011;30041;48.300;16.352;2024-01-25T01:36:49;0.22;;;0.00;;
43311;SDS011;30041;48.300;16.352;2024-01-25T01:39:14;0.00;;;0.00;;
43311;SDS011;30041;48.300;16.352;2024-01-25T01:41:40;0.40;;;0.10;;
43311;SDS011;30041;48.300;16.352;2024-01-25T01:44:06;0.10;;;0.03;;
43311;SDS011;30041;48.300;16.352;2024-01-25T01:46:33;0.10;;;0.00;;
43311;SDS011;30041;48.300;16.352;2024-01-25T01:48:59;0.15;;;0.00;;
43311;SDS011;30041;48.300;16.352;2024-01-25T01:51:26;0.00;;;0.00;;
43311;SDS011;30041;48.300;16.352;2024-01-25T01:53:54;0.00;;;0.00;;
43311;SDS011;30041;48.300;16.352;2024-01-25T01:56:20;0.22;;;0.00;;
43311;SDS011;30041;48.300;16.352;2024-01-25T01:58:47;0.05;;;0.00;;
43311;SDS011;30041;48.300;16.352;2024-01-25T02:01:13;0.20;;;0.05;;
43311;SDS011;30041;48.300;16.352;2024-01-25T02:03:43;0.20;;;0.10;;
43311;SDS011;30041;48.300;16.352;2024-01-25T02:06:08;0.17;;;0.00;;
43311;SDS011;30041;48.300;16.352;2024-01-25T02:08:35;0.10;;;0.00;;
43311;SDS011;30041;48.300;16.352;2024-01-25T02:11:01;0.10;;;0.00;;
43311;SDS011;30041;48.300;16.352;2024-01-25T02:13:27;0.00;;;0.00;;
43311;SDS011;30041;48.300;16.352;2024-01-25T02:15:53;0.00;;;0.00;;
43311;SDS011;30041;48.300;16.352;2024-01-25T02:18:19;0.30;;;0.10;;
43311;SDS011;30041;48.300;16.352;2024-01-25T02:20:45;0.15;;;0.00;;
43311;SDS011;30041;48.300;16.352;2024-01-25T02:23:11;0.00;;;0.00;;
43311;SDS011;30041;48.300;16.352;2024-01-25T02:25:37;0.00;;;0.00;;
43311;SDS011;30041;48.300;16.352;2024-01-25T02:28:03;0.38;;;0.00;;
43311;SDS011;30041;48.300;16.352;2024-01-25T02:30:29;0.05;;;0.00;;
43311;SDS011;30041;48.300;16.352;2024-01-25T02:32:54;0.10;;;0.00;;
43311;SDS011;30041;48.300;16.352;2024-01-25T02:35:20;0.00;;;0.00;;
43311;SDS011;30041;48.300;16.352;2024-01-25T02:37:46;0.00;;;0.00;;
43311;SDS011;30041;48.300;16.352;2024-01-25T02:40:12;0.00;;;0.00;;
43311;SDS011;30041;48.300;16.352;2024-01-25T02:42:38;0.13;;;0.00;;
43311;SDS011;30041;48.300;16.352;2024-01-25T02:45:04;0.00;;;0.00;;
43311;SDS011;30041;48.300;16.352;2024-01-25T02:47:30;0.15;;;0.00;;
43311;SDS011;30041;48.300;16.352;2024-01-25T02:49:56;0.20;;;0.00;;
43311;SDS011;30041;48.300;16.352;2024-01-25T02:52:21;0.10;;;0.00;;
43311;SDS011;30041;48.300;16.352;2024-01-25T02:54:47;0.10;;;0.00;;
43311;SDS011;30041;48.300;16.352;2024-01-25T02:57:13;0.47;;;0.10;;
43311;SDS011;30041;48.300;16.352;2024-01-25T02:59:39;0.08;;;0.00;;
43311;SDS011;30041;48.300;16.352;2024-01-25T03:02:05;0.10;;;0.00;;
43311;SDS011;30041;48.300;16.352;2024-01-25T03:04:30;0.10;;;0.00;;
43311;SDS011;30041;48.300;16.352;2024-01-25T03:06:56;0.10;;;0.00;;
43311;SDS011;30041;48.300;16.352;2024-01-25T03:09:22;0.00;;;0.00;;
43311;SDS011;30041;48.300;16.352;2024-01-25T03:11:48;0.22;;;0.03;;
43311;SDS011;30041;48.300;16.352;2024-01-25T03:14:14;0.22;;;0.00;;
43311;SDS011;30041;48.300;16.352;2024-01-25T03:16:40;0.28;;;0.00;;
43311;SDS011;30041;48.300;16.352;2024-01-25T03:19:06;0.00;;;0.00;;
43311;SDS011;30041;48.300;16.352;2024-01-25T03:21:32;0.00;;;0.00;;
43311;SDS011;30041;48.300;16.352;2024-01-25T03:23:58;0.28;;;0.00;;
43311;SDS011;30041;48.300;16.352;2024-01-25T03:26:23;0.10;;;0.00;;
43311;SDS011;30041;48.300;16.352;2024-01-25T03:28:52;0.00;;;0.00;;
43311;SDS011;30041;48.300;16.352;2024-01-25T03:31:18;0.47;;;0.00;;
43311;SDS011;30041;48.300;16.352;2024-01-25T03:33:44;0.00;;;0.00;;
43311;SDS011;30041;48.300;16.352;2024-01-25T03:36:13;0.00;;;0.00;;
43311;SDS011;30041;48.300;16.352;2024-01-25T03:38:39;0.17;;;0.00;;
43311;SDS011;30041;48.300;16.352;2024-01-25T03:41:05;0.03;;;0.00;;
43311;SDS011;30041;48.300;16.352;2024-01-25T03:43:31;0.00;;;0.00;;
43311;SDS011;30041;48.300;16.352;2024-01-25T03:45:56;0.25;;;0.00;;
43311;SDS011;30041;48.300;16.352;2024-01-25T03:48:22;0.30;;;0.00;;
43311;SDS011;30041;48.300;16.352;2024-01-25T03:50:48;0.10;;;0.00;;
43311;SDS011;30041;48.300;16.352;2024-01-25T03:53:14;0.20;;;0.00;;
43311;SDS011;30041;48.300;16.352;2024-01-25T03:55:40;0.10;;;0.00;;
43311;SDS011;30041;48.300;16.352;2024-01-25T03:58:06;0.20;;;0.10;;
43311;SDS011;30041;48.300;16.352;2024-01-25T04:00:35;0.00;;;0.00;;
43311;SDS011;30041;48.300;16.352;2024-01-25T04:03:01;0.00;;;0.00;;
43311;SDS011;30041;48.300;16.352;2024-01-25T04:05:27;0.00;;;0.00;;
43311;SDS011;30041;48.300;16.352;2024-01-25T04:07:53;0.17;;;0.00;;
43311;SDS011;30041;48.300;16.352;2024-01-25T04:10:19;0.00;;;0.00;;
43311;SDS011;30041;48.300;16.352;2024-01-25T04:12:45;0.03;;;0.00;;
43311;SDS011;30041;48.300;16.352;2024-01-25T04:15:11;0.10;;;0.00;;
43311;SDS011;30041;48.300;16.352;2024-01-25T04:17:37;0.13;;;0.00;;
43311;SDS011;30041;48.300;16.352;2024-01-25T04:20:02;0.32;;;0.00;;
43311;SDS011;30041;48.300;16.352;2024-01-25T04:22:32;0.00;;;0.00;;
43311;SDS011;30041;48.300;16.352;2024-01-25T04:24:58;0.08;;;0.00;;
43311;SDS011;30041;48.300;16.352;2024-01-25T04:27:23;0.05;;;0.00;;
43311;SDS011;30041;48.300;16.352;2024-01-25T04:29:49;0.00;;;0.00;;
43311;SDS011;30041;48.300;16.352;2024-01-25T04:32:15;0.35;;;0.00;;
43311;SDS011;30041;48.300;16.352;2024-01-25T04:34:41;0.40;;;0.00;;
43311;SDS011;30041;48.300;16.352;2024-01-25T04:37:09;0.10;;;0.03;;
43311;SDS011;30041;48.300;16.352;2024-01-25T04:39:35;0.10;;;0.00;;
43311;SDS011;30041;48.300;16.352;2024-01-25T04:42:00;0.08;;;0.00;;
43311;SDS011;30041;48.300;16.352;2024-01-25T04:44:26;0.15;;;0.00;;
43311;SDS011;30041;48.300;16.352;2024-01-25T04:46:52;0.00;;;0.00;;
43311;SDS011;30041;48.300;16.352;2024-01-25T04:49:18;0.08;;;0.00;;
43311;SDS011;30041;48.300;16.352;2024-01-25T04:51:44;0.00;;;0.00;;
43311;SDS011;30041;48.300;16.352;2024-01-25T04:54:09;0.00;;;0.00;;
43311;SDS011;30041;48.300;16.352;2024-01-25T04:56:35;0.10;;;0.00;;
43311;SDS011;30041;48.300;16.352;2024-01-25T04:59:01;0.00;;;0.00;;
43311;SDS011;30041;48.300;16.352;2024-01-25T05:01:27;0.10;;;0.03;;
43311;SDS011;30041;48.300;16.352;2024-01-25T05:03:53;0.10;;;0.00;;
43311;SDS011;30041;48.300;16.352;2024-01-25T05:06:18;0.30;;;0.10;;
43311;SDS011;30041;48.300;16.352;2024-01-25T05:08:44;0.28;;;0.00;;
43311;SDS011;30041;48.300;16.352;2024-01-25T05:11:10;0.00;;;0.00;;
43311;SDS011;30041;48.300;16.352;2024-01-25T05:13:36;0.20;;;0.00;;
43311;SDS011;30041;48.300;16.352;2024-01-25T05:16:02;0.08;;;0.00;;
43311;SDS011;30041;48.300;16.352;2024-01-25T05:18:28;0.00;;;0.00;;
43311;SDS011;30041;48.300;16.352;2024-01-25T05:20:53;0.10;;;0.00;;
43311;SDS011;30041;48.300;16.352;2024-01-25T05:23:19;0.20;;;0.00;;
43311;SDS011;30041;48.300;16.352;2024-01-25T05:25:45;0.43;;;0.00;;
43311;SDS011;30041;48.300;16.352;2024-01-25T05:28:11;0.05;;;0.00;;
43311;SDS011;30041;48.300;16.352;2024-01-25T05:30:37;0.08;;;0.00;;
43311;SDS011;30041;48.300;16.352;2024-01-25T05:33:06;0.00;;;0.00;;
43311;SDS011;30041;48.300;16.352;2024-01-25T05:35:32;0.05;;;0.00;;
43311;SDS011;30041;48.300;16.352;2024-01-25T05:37:58;0.15;;;0.03;;
43311;SDS011;30041;48.300;16.352;2024-01-25T05:40:23;0.00;;;0.00;;
43311;SDS011;30041;48.300;16.352;2024-01-25T05:42:49;0.00;;;0.00;;
43311;SDS011;30041;48.300;16.352;2024-01-25T05:45:15;0.10;;;0.00;;
43311;SDS011;30041;48.300;16.352;2024-01-25T05:47:41;0.00;;;0.00;;
43311;SDS011;30041;48.300;16.352;2024-01-25T05:50:06;0.00;;;0.00;;
43311;SDS011;30041;48.300;16.352;2024-01-25T05:52:32;0.30;;;0.00;;
43311;SDS011;30041;48.300;16.352;2024-01-25T05:54:58;0.05;;;0.00;;
43311;SDS011;30041;48.300;16.352;2024-01-25T05:57:24;0.28;;;0.10;;
43311;SDS011;30041;48.300;16.352;2024-01-25T05:59:50;0.30;;;0.10;;
43311;SDS011;30041;48.300;16.352;2024-01-25T06:02:16;0.38;;;0.15;;
43311;SDS011;30041;48.300;16.352;2024-01-25T06:04:42;0.30;;;0.10;;
43311;SDS011;30041;48.300;16.352;2024-01-25T06:07:08;2.58;;;0.63;;
43311;SDS011;30041;48.300;16.352;2024-01-25T06:09:33;1.92;;;0.70;;
43311;SDS011;30041;48.300;16.352;2024-01-25T06:11:59;2.88;;;0.93;;
43311;SDS011;30041;48.300;16.352;2024-01-25T06:14:25;8.80;;;1.73;;
43311;SDS011;30041;48.300;16.352;2024-01-25T06:16:51;3.92;;;1.02;;
43311;SDS011;30041;48.300;16.352;2024-01-25T06:19:17;5.22;;;1.20;;
43311;SDS011;30041;48.300;16.352;2024-01-25T06:21:43;3.92;;;0.95;;
43311;SDS011;30041;48.300;16.352;2024-01-25T06:24:09;2.65;;;1.10;;
43311;SDS011;30041;48.300;16.352;2024-01-25T06:26:35;2.83;;;0.90;;
43311;SDS011;30041;48.300;16.352;2024-01-25T06:29:00;2.80;;;0.93;;
43311;SDS011;30041;48.300;16.352;2024-01-25T06:31:26;2.13;;;0.95;;
43311;SDS011;30041;48.300;16.352;2024-01-25T06:33:53;4.97;;;0.80;;
43311;SDS011;30041;48.300;16.352;2024-01-25T06:36:19;4.28;;;1.15;;
43311;SDS011;30041;48.300;16.352;2024-01-25T06:38:45;12.70;;;1.50;;
43311;SDS011;30041;48.300;16.352;2024-01-25T06:41:11;6.45;;;1.52;;
43311;SDS011;30041;48.300;16.352;2024-01-25T06:43:37;4.63;;;1.23;;
43311;SDS011;30041;48.300;16.352;2024-01-25T06:46:03;4.47;;;1.00;;
43311;SDS011;30041;48.300;16.352;2024-01-25T06:48:30;4.32;;;0.95;;
43311;SDS011;30041;48.300;16.352;2024-01-25T06:50:56;3.97;;;0.90;;
43311;SDS011;30041;48.300;16.352;2024-01-25T06:53:22;2.65;;;0.98;;
43311;SDS011;30041;48.300;16.352;2024-01-25T06:55:48;7.07;;;1.15;;
43311;SDS011;30041;48.300;16.352;2024-01-25T06:58:14;12.10;;;1.48;;
43311;SDS011;30041;48.300;16.352;2024-01-25T07:00:40;7.03;;;1.13;;
43311;SDS011;30041;48.300;16.352;2024-01-25T07:03:06;5.32;;;1.27;;
43311;SDS011;30041;48.300;16.352;2024-01-25T07:05:35;3.10;;;1.10;;
43311;SDS011;30041;48.300;16.352;2024-01-25T07:08:01;5.68;;;1.35;;
43311;SDS011;30041;48.300;16.352;2024-01-25T07:10:30;5.45;;;1.40;;
43311;SDS011;30041;48.300;16.352;2024-01-25T07:12:56;5.10;;;1.23;;
43311;SDS011;30041;48.300;16.352;2024-01-25T07:15:22;7.22;;;1.25;;
43311;SDS011;30041;48.300;16.352;2024-01-25T07:17:50;4.32;;;1.30;;
43311;SDS011;30041;48.300;16.352;2024-01-25T07:20:16;4.28;;;1.17;;
43311;SDS011;30041;48.300;16.352;2024-01-25T07:22:42;4.15;;;1.20;;
43311;SDS011;30041;48.300;16.352;2024-01-25T07:25:10;4.93;;;0.98;;
43311;SDS011;30041;48.300;16.352;2024-01-25T07:27:36;4.47;;;1.00;;
43311;SDS011;30041;48.300;16.352;2024-01-25T07:30:02;5.63;;;1.42;;
43311;SDS011;30041;48.300;16.352;2024-01-25T07:32:28;4.03;;;1.38;;
43311;SDS011;30041;48.300;16.352;2024-01-25T07:34:54;5.03;;;1.25;;
43311;SDS011;30041;48.300;16.352;2024-01-25T07:37:22;16.27;;;1.70;;
43311;SDS011;30041;48.300;16.352;2024-01-25T07:39:48;6.40;;;1.30;;
43311;SDS011;30041;48.300;16.352;2024-01-25T07:42:14;18.23;;;2.20;;
43311;SDS011;30041;48.300;16.352;2024-01-25T07:44:40;9.55;;;1.23;;
43311;SDS011;30041;48.300;16.352;2024-01-25T07:47:06;6.60;;;1.63;;
43311;SDS011;30041;48.300;16.352;2024-01-25T07:49:31;8.77;;;1.48;;
43311;SDS011;30041;48.300;16.352;2024-01-25T07:51:57;7.28;;;1.33;;
43311;SDS011;30041;48.300;16.352;2024-01-25T07:54:23;5.22;;;1.40;;
43311;SDS011;30041;48.300;16.352;2024-01-25T07:56:50;5.90;;;1.40;;
43311;SDS011;30041;48.300;16.352;2024-01-25T07:59:16;6.93;;;1.67;;
43311;SDS011;30041;48.300;16.352;2024-01-25T08:01:42;5.43;;;1.10;;
43311;SDS011;30041;48.300;16.352;2024-01-25T08:04:08;3.95;;;1.27;;
43311;SDS011;30041;48.300;16.352;2024-01-25T08:06:33;4.75;;;1.50;;
43311;SDS011;30041;48.300;16.352;2024-01-25T08:08:59;3.50;;;1.20;;
43311;SDS011;30041;48.300;16.352;2024-01-25T08:11:25;6.40;;;1.35;;
43311;SDS011;30041;48.300;16.352;2024-01-25T08:13:51;6.15;;;1.60;;
43311;SDS011;30041;48.300;16.352;2024-01-25T08:16:17;5.10;;;1.23;;
43311;SDS011;30041;48.300;16.352;2024-01-25T08:18:43;5.18;;;1.48;;
43311;SDS011;30041;48.300;16.352;2024-01-25T08:21:10;5.75;;;1.50;;
43311;SDS011;30041;48.300;16.352;2024-01-25T08:23:36;4.10;;;1.27;;
43311;SDS011;30041;48.300;16.352;2024-01-25T08:26:02;4.97;;;1.30;;
43311;SDS011;30041;48.300;16.352;2024-01-25T08:28:28;4.97;;;1.35;;
43311;SDS011;30041;48.300;16.352;2024-01-25T08:30:56;4.80;;;1.58;;
43311;SDS011;30041;48.300;16.352;2024-01-25T08:33:22;3.65;;;1.30;;
43311;SDS011;30041;48.300;16.352;2024-01-25T08:35:48;4.47;;;1.00;;
43311;SDS011;30041;48.300;16.352;2024-01-25T08:38:14;3.55;;;1.30;;
43311;SDS011;30041;48.300;16.352;2024-01-25T08:40:40;5.72;;;1.33;;
43311;SDS011;30041;48.300;16.352;2024-01-25T08:43:06;5.65;;;1.42;;
43311;SDS011;30041;48.300;16.352;2024-01-25T08:45:32;4.50;;;1.17;;
43311;SDS011;30041;48.300;16.352;2024-01-25T08:47:57;4.43;;;1.30;;
43311;SDS011;30041;48.300;16.352;2024-01-25T08:50:23;2.55;;;1.10;;
43311;SDS011;30041;48.300;16.352;2024-01-25T08:52:49;4.57;;;1.60;;
43311;SDS011;30041;48.300;16.352;2024-01-25T08:55:15;4.03;;;1.40;;
43311;SDS011;30041;48.300;16.352;2024-01-25T08:57:41;3.38;;;1.17;;
43311;SDS011;30041;48.300;16.352;2024-01-25T09:00:07;3.83;;;1.30;;
43311;SDS011;30041;48.300;16.352;2024-01-25T09:02:34;4.32;;;1.45;;
43311;SDS011;30041;48.300;16.352;2024-01-25T09:04:59;4.68;;;1.50;;
43311;SDS011;30041;48.300;16.352;2024-01-25T09:07:25;5.43;;;1.60;;
43311;SDS011;30041;48.300;16.352;2024-01-25T09:09:51;3.95;;;1.10;;
43311;SDS011;30041;48.300;16.352;2024-01-25T09:12:17;5.32;;;1.35;;
43311;SDS011;30041;48.300;16.352;2024-01-25T09:14:43;4.50;;;1.25;;
43311;SDS011;30041;48.300;16.352;2024-01-25T09:17:09;6.78;;;1.30;;
43311;SDS011;30041;48.300;16.352;2024-01-25T09:19:35;4.22;;;1.30;;
43311;SDS011;30041;48.300;16.352;2024-01-25T09:22:01;4.00;;;1.17;;
43311;SDS011;30041;48.300;16.352;2024-01-25T09:24:27;4.60;;;1.50;;
43311;SDS011;30041;48.300;16.352;2024-01-25T09:26:56;3.80;;;1.17;;
43311;SDS011;30041;48.300;16.352;2024-01-25T09:29:22;3.70;;;1.10;;
43311;SDS011;30041;48.300;16.352;2024-01-25T09:31:50;2.92;;;1.20;;
43311;SDS011;30041;48.300;16.352;2024-01-25T09:34:16;4.13;;;1.40;;
43311;SDS011;30041;48.300;16.352;2024-01-25T09:36:42;4.75;;;1.50;;
43311;SDS011;30041;48.300;16.352;2024-01-25T09:39:08;4.05;;;1.27;;
43311;SDS011;30041;48.300;16.352;2024-01-25T09:41:34;4.05;;;1.40;;
43311;SDS011;30041;48.300;16.352;2024-01-25T09:44:00;3.53;;;1.10;;
43311;SDS011;30041;48.300;16.352;2024-01-25T09:46:26;4.75;;;1.52;;
43311;SDS011;30041;48.300;16.352;2024-01-25T09:48:52;3.45;;;1.20;;
43311;SDS011;30041;48.300;16.352;2024-01-25T09:51:21;3.63;;;1.30;;
43311;SDS011;30041;48.300;16.352;2024-01-25T09:53:48;3.35;;;1.13;;
43311;SDS011;30041;48.300;16.352;2024-01-25T09:56:15;3.45;;;1.40;;
43311;SDS011;30041;48.300;16.352;2024-01-25T09:58:45;3.22;;;1.13;;
43311;SDS011;30041;48.300;16.352;2024-01-25T10:01:12;3.88;;;1.20;;
43311;SDS011;30041;48.300;16.352;2024-01-25T10:03:42;3.45;;;1.35;;
43311;SDS011;30041;48.300;16.352;2024-01-25T10:06:11;4.82;;;1.27;;
43311;SDS011;30041;48.300;16.352;2024-01-25T10:08:38;3.10;;;1.15;;
43311;SDS011;30041;48.300;16.352;2024-01-25T10:11:04;2.95;;;1.08;;
43311;SDS011;30041;48.300;16.352;2024-01-25T10:13:30;3.05;;;1.15;;
43311;SDS011;30041;48.300;16.352;2024-01-25T10:15:56;3.00;;;0.93;;
43311;SDS011;30041;48.300;16.352;2024-01-25T10:18:23;6.97;;;1.35;;
43311;SDS011;30041;48.300;16.352;2024-01-25T10:20:49;3.00;;;1.30;;
43311;SDS011;30041;48.300;16.352;2024-01-25T10:23:15;3.83;;;1.20;;
43311;SDS011;30041;48.300;16.352;2024-01-25T10:25:41;3.80;;;1.23;;
43311;SDS011;30041;48.300;16.352;2024-01-25T10:28:07;2.75;;;1.00;;
43311;SDS011;30041;48.300;16.352;2024-01-25T10:30:33;2.65;;;1.15;;
43311;SDS011;30041;48.300;16.352;2024-01-25T10:33:01;4.00;;;1.38;;
43311;SDS011;30041;48.300;16.352;2024-01-25T10:35:28;3.50;;;1.30;;
43311;SDS011;30041;48.300;16.352;2024-01-25T10:37:56;2.42;;;1.13;;
43311;SDS011;30041;48.300;16.352;2024-01-25T10:40:22;3.63;;;1.30;;
43311;SDS011;30041;48.300;16.352;2024-01-25T10:42:49;3.30;;;1.25;;
43311;SDS011;30041;48.300;16.352;2024-01-25T10:45:15;3.88;;;1.27;;
43311;SDS011;30041;48.300;16.352;2024-01-25T10:47:41;4.03;;;1.20;;
43311;SDS011;30041;48.300;16.352;2024-01-25T10:50:07;2.75;;;1.27;;
43311;SDS011;30041;48.300;16.352;2024-01-25T10:52:33;3.70;;;1.08;;
43311;SDS011;30041;48.300;16.352;2024-01-25T10:54:59;2.75;;;1.08;;
43311;SDS011;30041;48.300;16.352;2024-01-25T10:57:26;3.63;;;1.25;;
43311;SDS011;30041;48.300;16.352;2024-01-25T11:00:00;3.72;;;1.20;;
43311;SDS011;30041;48.300;16.352;2024-01-25T11:02:26;5.03;;;1.30;;
43311;SDS011;30041;48.300;16.352;2024-01-25T11:04:53;3.53;;;1.40;;
43311;SDS011;30041;48.300;16.352;2024-01-25T11:07:20;3.50;;;1.15;;
43311;SDS011;30041;48.300;16.352;2024-01-25T11:09:47;3.75;;;1.45;;
43311;SDS011;30041;48.300;16.352;2024-01-25T11:12:17;3.67;;;1.30;;
43311;SDS011;30041;48.300;16.352;2024-01-25T11:14:44;3.90;;;1.50;;
43311;SDS011;30041;48.300;16.352;2024-01-25T11:17:20;2.60;;;1.30;;
43311;SDS011;30041;48.300;16.352;2024-01-25T11:19:50;3.35;;;1.15;;
43311;SDS011;30041;48.300;16.352;2024-01-25T11:22:16;3.22;;;1.02;;
43311;SDS011;30041;48.300;16.352;2024-01-25T11:24:44;4.25;;;1.50;;
43311;SDS011;30041;48.300;16.352;2024-01-25T11:27:10;3.03;;;1.30;;
43311;SDS011;30041;48.300;16.352;2024-01-25T11:29:38;3.53;;;1.20;;
43311;SDS011;30041;48.300;16.352;2024-01-25T11:32:04;3.60;;;1.45;;
43311;SDS011;30041;48.300;16.352;2024-01-25T11:34:30;2.92;;;1.17;;
43311;SDS011;30041;48.300;16.352;2024-01-25T11:36:56;3.35;;;1.20;;
43311;SDS011;30041;48.300;16.352;2024-01-25T11:39:22;4.90;;;1.85;;
43311;SDS011;30041;48.300;16.352;2024-01-25T11:41:50;5.80;;;1.60;;
43311;SDS011;30041;48.300;16.352;2024-01-25T11:44:19;3.63;;;1.30;;
43311;SDS011;30041;48.300;16.352;2024-01-25T11:46:45;3.28;;;1.20;;
43311;SDS011;30041;48.300;16.352;2024-01-25T11:49:11;3.42;;;1.20;;
43311;SDS011;30041;48.300;16.352;2024-01-25T11:51:37;4.68;;;1.40;;
43311;SDS011;30041;48.300;16.352;2024-01-25T11:54:02;3.90;;;1.50;;
43311;SDS011;30041;48.300;16.352;2024-01-25T11:56:30;3.13;;;1.08;;
43311;SDS011;30041;48.300;16.352;2024-01-25T11:58:58;3.38;;;1.40;;
43311;SDS011;30041;48.300;16.352;2024-01-25T12:01:25;3.13;;;1.10;;
43311;SDS011;30041;48.300;16.352;2024-01-25T12:03:52;5.20;;;1.20;;
43311;SDS011;30041;48.300;16.352;2024-01-25T12:06:21;4.22;;;1.27;;
43311;SDS011;30041;48.300;16.352;2024-01-25T12:08:50;3.75;;;1.30;;
43311;SDS011;30041;48.300;16.352;2024-01-25T12:11:16;3.35;;;1.30;;
43311;SDS011;30041;48.300;16.352;2024-01-25T12:13:42;2.55;;;1.10;;
43311;SDS011;30041;48.300;16.352;2024-01-25T12:16:09;3.70;;;1.35;;
43311;SDS011;30041;48.300;16.352;2024-01-25T12:18:35;4.13;;;1.30;;
43311;SDS011;30041;48.300;16.352;2024-01-25T12:21:03;3.30;;;1.30;;
43311;SDS011;30041;48.300;16.352;2024-01-25T12:23:32;3.20;;;1.10;;
43311;SDS011;30041;48.300;16.352;2024-01-25T12:25:59;4.50;;;1.42;;
43311;SDS011;30041;48.300;16.352;2024-01-25T12:28:32;3.20;;;1.20;;
43311;SDS011;30041;48.300;16.352;2024-01-25T12:31:01;3.58;;;1.30;;
43311;SDS011;30041;48.300;16.352;2024-01-25T12:33:28;2.78;;;1.20;;
43311;SDS011;30041;48.300;16.352;2024-01-25T12:35:55;2.70;;;1.10;;
43311;SDS011;30041;48.300;16.352;2024-01-25T12:38:24;3.67;;;1.40;;
43311;SDS011;30041;48.300;16.352;2024-01-25T12:40:50;3.17;;;1.25;;
43311;SDS011;30041;48.300;16.352;2024-01-25T12:43:16;6.22;;;1.20;;
43311;SDS011;30041;48.300;16.352;2024-01-25T12:45:43;3.75;;;1.30;;
43311;SDS011;30041;48.300;16.352;2024-01-25T12:48:09;3.70;;;1.23;;
43311;SDS011;30041;48.300;16.352;2024-01-25T12:50:36;3.30;;;1.40;;
43311;SDS011;30041;48.300;16.352;2024-01-25T12:53:03;4.68;;;0.95;;
43311;SDS011;30041;48.300;16.352;2024-01-25T12:55:29;3.40;;;1.20;;
43311;SDS011;30041;48.300;16.352;2024-01-25T12:57:59;2.78;;;1.08;;
43311;SDS011;30041;48.300;16.352;2024-01-25T13:00:25;3.92;;;1.35;;
43311;SDS011;30041;48.300;16.352;2024-01-25T13:02:51;5.35;;;1.45;;
43311;SDS011;30041;48.300;16.352;2024-01-25T13:05:19;5.60;;;1.33;;
43311;SDS011;30041;48.300;16.352;2024-01-25T13:07:45;4.43;;;1.48;;
43311;SDS011;30041;48.300;16.352;2024-01-25T13:10:15;11.38;;;1.48;;
43311;SDS011;30041;48.300;16.352;2024-01-25T13:12:41;5.65;;;1.30;;
43311;SDS011;30041;48.300;16.352;2024-01-25T13:15:07;4.18;;;1.17;;
43311;SDS011;30041;48.300;16.352;2024-01-25T13:17:34;3.50;;;1.17;;
43311;SDS011;30041;48.300;16.352;2024-01-25T13:20:09;5.03;;;1.40;;
43311;SDS011;30041;48.300;16.352;2024-01-25T13:22:36;4.63;;;1.10;;
43311;SDS011;30041;48.300;16.352;2024-01-25T13:25:02;3.72;;;1.17;;
43311;SDS011;30041;48.300;16.352;2024-01-25T13:27:29;4.57;;;1.20;;
43311;SDS011;30041;48.300;16.352;2024-01-25T13:29:55;4.85;;;1.50;;
43311;SDS011;30041;48.300;16.352;2024-01-25T13:32:22;3.92;;;1.48;;
43311;SDS011;30041;48.300;16.352;2024-01-25T13:34:55;3.33;;;1.23;;
43311;SDS011;30041;48.300;16.352;2024-01-25T13:37:21;8.57;;;1.40;;
43311;SDS011;30041;48.300;16.352;2024-01-25T13:39:47;4.88;;;1.60;;
43311;SDS011;30041;48.300;16.352;2024-01-25T13:42:13;3.90;;;1.40;;
43311;SDS011;30041;48.300;16.352;2024-01-25T13:44:39;4.72;;;1.50;;
43311;SDS011;30041;48.300;16.352;2024-01-25T13:47:05;5.00;;;1.25;;
43311;SDS011;30041;48.300;16.352;2024-01-25T13:49:31;3.55;;;1.33;;
43311;SDS011;30041;48.300;16.352;2024-01-25T13:51:59;4.97;;;1.38;;
43311;SDS011;30041;48.300;16.352;2024-01-25T13:54:28;4.60;;;1.65;;
43311;SDS011;30041;48.300;16.352;2024-01-25T13:56:54;4.85;;;1.52;;
43311;SDS011;30041;48.300;16.352;2024-01-25T13:59:20;4.00;;;1.33;;
43311;SDS011;30041;48.300;16.352;2024-01-25T14:01:46;5.00;;;1.58;;
43311;SDS011;30041;48.300;16.352;2024-01-25T14:04:12;3.63;;;1.40;;
43311;SDS011;30041;48.300;16.352;2024-01-25T14:06:38;3.97;;;1.17;;
43311;SDS011;30041;48.300;16.352;2024-01-25T14:09:04;4.50;;;1.20;;
43311;SDS011;30041;48.300;16.352;2024-01-25T14:11:30;4.30;;;1.42;;
43311;SDS011;30041;48.300;16.352;2024-01-25T14:13:56;4.38;;;1.33;;
43311;SDS011;30041;48.300;16.352;2024-01-25T14:16:22;4.60;;;1.60;;
43311;SDS011;30041;48.300;16.352;2024-01-25T14:18:48;4.47;;;1.30;;
43311;SDS011;30041;48.300;16.352;2024-01-25T14:21:14;4.30;;;1.30;;
43311;SDS011;30041;48.300;16.352;2024-01-25T14:23:40;4.78;;;1.45;;
43311;SDS011;30041;48.300;16.352;2024-01-25T14:26:06;3.42;;;1.13;;
43311;SDS011;30041;48.300;16.352;2024-01-25T14:28:31;3.17;;;1.38;;